sensor_id;sensor_type;location;lat;lon;timestamp;pressure;altitude;pressure_sealevel;temperature;humidity
63088;BME280;49173;43.164;27.786;2022-10-16T00:01:28;101250.28;;;13.14;63.60
63088;BME280;49173;43.164;27.786;2022-10-16T00:03:55;101250.50;;;13.10;63.50
63088;BME280;49173;43.164;27.786;2022-10-16T00:06:22;101251.38;;;13.10;63.69
63088;BME280;49173;43.164;27.786;2022-10-16T00:08:48;101254.16;;;13.09;63.73
63088;BME280;49173;43.164;27.786;2022-10-16T00:11:23;101265.78;;;13.09;63.92
63088;BME280;49173;43.164;27.786;2022-10-16T00:13:52;101260.41;;;13.09;63.84
63088;BME280;49173;43.164;27.786;2022-10-16T00:16:20;101263.19;;;13.08;63.99
63088;BME280;49173;43.164;27.786;2022-10-16T00:18:46;101274.84;;;13.08;63.95
63088;BME280;49173;43.164;27.786;2022-10-16T00:21:15;101268.88;;;13.02;64.04
63088;BME280;49173;43.164;27.786;2022-10-16T00:23:41;101261.50;;;12.88;64.44
63088;BME280;49173;43.164;27.786;2022-10-16T00:26:11;101271.69;;;12.81;64.69
63088;BME280;49173;43.164;27.786;2022-10-16T00:28:37;101267.44;;;12.77;65.00
63088;BME280;49173;43.164;27.786;2022-10-16T00:31:05;101259.34;;;12.77;64.99
63088;BME280;49173;43.164;27.786;2022-10-16T00:33:32;101263.72;;;12.61;65.24
63088;BME280;49173;43.164;27.786;2022-10-16T00:35:59;101264.69;;;12.60;65.54
63088;BME280;49173;43.164;27.786;2022-10-16T00:38:25;101260.91;;;12.64;65.47
63088;BME280;49173;43.164;27.786;2022-10-16T00:40:50;101256.84;;;12.55;65.53
63088;BME280;49173;43.164;27.786;2022-10-16T00:46:45;101254.75;;;12.43;65.69
63088;BME280;49173;43.164;27.786;2022-10-16T00:49:13;101256.19;;;12.31;66.04
63088;BME280;49173;43.164;27.786;2022-10-16T00:51:45;101247.75;;;12.39;65.97
63088;BME280;49173;43.164;27.786;2022-10-16T00:54:23;101261.09;;;12.42;65.51
63088;BME280;49173;43.164;27.786;2022-10-16T00:56:50;101258.88;;;12.50;65.25
63088;BME280;49173;43.164;27.786;2022-10-16T00:59:23;101265.94;;;12.53;65.04
63088;BME280;49173;43.164;27.786;2022-10-16T01:01:51;101264.94;;;12.55;64.98
63088;BME280;49173;43.164;27.786;2022-10-16T01:04:17;101263.97;;;12.56;64.97
63088;BME280;49173;43.164;27.786;2022-10-16T01:06:49;101274.66;;;12.58;65.18
63088;BME280;49173;43.164;27.786;2022-10-16T01:09:25;101272.94;;;12.57;64.99
63088;BME280;49173;43.164;27.786;2022-10-16T01:12:14;101281.09;;;12.55;65.05
63088;BME280;49173;43.164;27.786;2022-10-16T01:14:58;101291.00;;;12.55;64.99
63088;BME280;49173;43.164;27.786;2022-10-16T01:17:28;101293.03;;;12.50;65.02
63088;BME280;49173;43.164;27.786;2022-10-16T01:22:42;101287.34;;;12.37;65.28
63088;BME280;49173;43.164;27.786;2022-10-16T01:25:19;101292.13;;;12.30;65.40
63088;BME280;49173;43.164;27.786;2022-10-16T01:27:47;101295.78;;;12.29;65.58
63088;BME280;49173;43.164;27.786;2022-10-16T01:30:21;101292.00;;;12.33;65.40
63088;BME280;49173;43.164;27.786;2022-10-16T01:32:59;101297.31;;;12.35;65.46
63088;BME280;49173;43.164;27.786;2022-10-16T01:35:30;101311.78;;;12.32;65.34
63088;BME280;49173;43.164;27.786;2022-10-16T01:38:03;101309.25;;;12.29;65.43
63088;BME280;49173;43.164;27.786;2022-10-16T01:40:33;101310.28;;;12.27;65.29
63088;BME280;49173;43.164;27.786;2022-10-16T01:43:12;101309.59;;;12.22;65.19
63088;BME280;49173;43.164;27.786;2022-10-16T01:45:40;101313.53;;;12.15;65.35
63088;BME280;49173;43.164;27.786;2022-10-16T01:48:10;101310.44;;;12.03;65.55
63088;BME280;49173;43.164;27.786;2022-10-16T01:50:40;101306.63;;;11.89;65.78
63088;BME280;49173;43.164;27.786;2022-10-16T01:53:09;101307.97;;;11.78;66.26
63088;BME280;49173;43.164;27.786;2022-10-16T01:55:40;101301.06;;;11.73;66.51
63088;BME280;49173;43.164;27.786;2022-10-16T01:58:12;101309.38;;;11.67;66.85
63088;BME280;49173;43.164;27.786;2022-10-16T02:00:42;101302.47;;;11.61;66.90
63088;BME280;49173;43.164;27.786;2022-10-16T02:03:11;101308.06;;;11.57;67.00
63088;BME280;49173;43.164;27.786;2022-10-16T02:05:51;101309.19;;;11.51;67.08
63088;BME280;49173;43.164;27.786;2022-10-16T02:08:19;101315.78;;;11.44;67.46
63088;BME280;49173;43.164;27.786;2022-10-16T02:10:45;101303.47;;;11.38;67.59
63088;BME280;49173;43.164;27.786;2022-10-16T02:13:39;101312.41;;;11.39;67.60
63088;BME280;49173;43.164;27.786;2022-10-16T02:16:11;101310.81;;;11.35;67.59
63088;BME280;49173;43.164;27.786;2022-10-16T02:18:37;101310.84;;;11.33;67.38
63088;BME280;49173;43.164;27.786;2022-10-16T02:21:25;101307.44;;;11.30;67.41
63088;BME280;49173;43.164;27.786;2022-10-16T02:23:58;101306.91;;;11.21;67.48
63088;BME280;49173;43.164;27.786;2022-10-16T02:26:38;101317.03;;;11.15;67.78
63088;BME280;49173;43.164;27.786;2022-10-16T02:29:10;101327.56;;;11.19;67.96
63088;BME280;49173;43.164;27.786;2022-10-16T02:31:41;101333.69;;;11.23;67.71
63088;BME280;49173;43.164;27.786;2022-10-16T02:34:08;101331.00;;;11.23;67.48
63088;BME280;49173;43.164;27.786;2022-10-16T02:36:38;101341.13;;;11.16;67.58
63088;BME280;49173;43.164;27.786;2022-10-16T02:39:05;101346.63;;;11.13;67.54
63088;BME280;49173;43.164;27.786;2022-10-16T02:41:32;101344.84;;;11.14;67.83
63088;BME280;49173;43.164;27.786;2022-10-16T02:43:58;101345.09;;;11.08;67.77
63088;BME280;49173;43.164;27.786;2022-10-16T02:46:24;101344.47;;;11.01;67.76
63088;BME280;49173;43.164;27.786;2022-10-16T02:48:49;101341.00;;;10.97;67.69
63088;BME280;49173;43.164;27.786;2022-10-16T02:51:15;101345.50;;;10.97;67.59
63088;BME280;49173;43.164;27.786;2022-10-16T02:53:41;101343.78;;;10.96;67.79
63088;BME280;49173;43.164;27.786;2022-10-16T02:56:07;101344.72;;;10.95;67.71
63088;BME280;49173;43.164;27.786;2022-10-16T02:58:33;101357.28;;;10.94;67.74
63088;BME280;49173;43.164;27.786;2022-10-16T03:00:58;101346.69;;;10.90;67.87
63088;BME280;49173;43.164;27.786;2022-10-16T03:03:24;101348.41;;;10.92;67.94
63088;BME280;49173;43.164;27.786;2022-10-16T03:05:50;101349.28;;;10.93;67.60
63088;BME280;49173;43.164;27.786;2022-10-16T03:08:16;101344.81;;;10.92;67.58
63088;BME280;49173;43.164;27.786;2022-10-16T03:10:42;101343.84;;;10.94;67.40
63088;BME280;49173;43.164;27.786;2022-10-16T03:13:07;101342.84;;;10.97;67.26
63088;BME280;49173;43.164;27.786;2022-10-16T03:15:33;101340.06;;;10.98;66.89
63088;BME280;49173;43.164;27.786;2022-10-16T03:17:59;101341.09;;;10.96;66.70
63088;BME280;49173;43.164;27.786;2022-10-16T03:20:25;101350.19;;;10.92;66.61
63088;BME280;49173;43.164;27.786;2022-10-16T03:22:52;101353.88;;;10.89;66.67
63088;BME280;49173;43.164;27.786;2022-10-16T03:25:18;101352.47;;;10.81;67.01
63088;BME280;49173;43.164;27.786;2022-10-16T03:27:43;101352.56;;;10.78;67.00
63088;BME280;49173;43.164;27.786;2022-10-16T03:30:09;101350.50;;;10.84;67.07
63088;BME280;49173;43.164;27.786;2022-10-16T03:32:35;101345.03;;;10.87;66.66
63088;BME280;49173;43.164;27.786;2022-10-16T03:35:01;101340.28;;;10.94;66.46
63088;BME280;49173;43.164;27.786;2022-10-16T03:37:28;101343.78;;;10.96;66.42
63088;BME280;49173;43.164;27.786;2022-10-16T03:39:54;101338.41;;;10.96;66.22
63088;BME280;49173;43.164;27.786;2022-10-16T03:42:20;101340.91;;;11.00;65.90
63088;BME280;49173;43.164;27.786;2022-10-16T03:44:46;101356.19;;;10.98;65.54
63088;BME280;49173;43.164;27.786;2022-10-16T03:47:11;101351.97;;;10.93;65.61
63088;BME280;49173;43.164;27.786;2022-10-16T03:49:37;101352.25;;;10.85;66.03
63088;BME280;49173;43.164;27.786;2022-10-16T03:52:03;101354.34;;;10.79;66.06
63088;BME280;49173;43.164;27.786;2022-10-16T03:54:28;101352.69;;;10.75;66.54
63088;BME280;49173;43.164;27.786;2022-10-16T03:56:54;101353.63;;;10.73;66.54
63088;BME280;49173;43.164;27.786;2022-10-16T03:59:20;101354.34;;;10.79;66.28
63088;BME280;49173;43.164;27.786;2022-10-16T04:01:46;101360.59;;;10.79;66.13
63088;BME280;49173;43.164;27.786;2022-10-16T04:04:12;101360.38;;;10.84;66.10
63088;BME280;49173;43.164;27.786;2022-10-16T04:06:38;101362.00;;;10.88;65.96
63088;BME280;49173;43.164;27.786;2022-10-16T04:09:03;101360.94;;;10.92;65.72
63088;BME280;49173;43.164;27.786;2022-10-16T04:11:29;101361.00;;;10.90;65.77
63088;BME280;49173;43.164;27.786;2022-10-16T04:13:55;101362.81;;;10.90;65.46
63088;BME280;49173;43.164;27.786;2022-10-16T04:16:21;101370.94;;;10.88;65.67
63088;BME280;49173;43.164;27.786;2022-10-16T04:18:47;101361.25;;;10.84;65.73
63088;BME280;49173;43.164;27.786;2022-10-16T04:21:12;101368.63;;;10.79;65.74
63088;BME280;49173;43.164;27.786;2022-10-16T04:23:38;101370.63;;;10.74;65.74
63088;BME280;49173;43.164;27.786;2022-10-16T04:26:04;101373.31;;;10.74;65.94
63088;BME280;49173;43.164;27.786;2022-10-16T04:28:30;101371.63;;;10.71;65.91
63088;BME280;49173;43.164;27.786;2022-10-16T04:30:56;101368.31;;;10.65;66.26
63088;BME280;49173;43.164;27.786;2022-10-16T04:33:22;101372.09;;;10.59;66.25
63088;BME280;49173;43.164;27.786;2022-10-16T04:35:47;101373.03;;;10.58;66.67
63088;BME280;49173;43.164;27.786;2022-10-16T04:38:13;101371.31;;;10.56;66.77
63088;BME280;49173;43.164;27.786;2022-10-16T04:40:42;101373.28;;;10.52;66.63
63088;BME280;49173;43.164;27.786;2022-10-16T04:43:08;101377.00;;;10.48;66.81
63088;BME280;49173;43.164;27.786;2022-10-16T04:45:34;101374.31;;;10.48;66.70
63088;BME280;49173;43.164;27.786;2022-10-16T04:48:00;101386.78;;;10.49;67.25
63088;BME280;49173;43.164;27.786;2022-10-16T04:50:25;101378.88;;;10.46;67.05
63088;BME280;49173;43.164;27.786;2022-10-16T04:52:51;101377.00;;;10.48;67.09
63088;BME280;49173;43.164;27.786;2022-10-16T04:55:17;101381.31;;;10.52;66.99
63088;BME280;49173;43.164;27.786;2022-10-16T04:57:43;101391.13;;;10.53;66.86
63088;BME280;49173;43.164;27.786;2022-10-16T05:00:09;101386.50;;;10.57;66.92
63088;BME280;49173;43.164;27.786;2022-10-16T05:02:35;101387.25;;;10.60;66.86
63088;BME280;49173;43.164;27.786;2022-10-16T05:05:00;101380.00;;;10.62;67.02
63088;BME280;49173;43.164;27.786;2022-10-16T05:07:26;101380.78;;;10.66;66.93
63088;BME280;49173;43.164;27.786;2022-10-16T05:09:52;101392.34;;;10.68;66.61
63088;BME280;49173;43.164;27.786;2022-10-16T05:12:18;101392.03;;;10.76;66.27
63088;BME280;49173;43.164;27.786;2022-10-16T05:14:44;101395.50;;;10.79;66.11
63088;BME280;49173;43.164;27.786;2022-10-16T05:17:10;101405.09;;;10.85;66.06
63088;BME280;49173;43.164;27.786;2022-10-16T05:19:35;101398.69;;;10.89;66.06
63088;BME280;49173;43.164;27.786;2022-10-16T05:22:01;101404.59;;;10.97;65.71
63088;BME280;49173;43.164;27.786;2022-10-16T05:24:27;101420.66;;;10.98;65.76
63088;BME280;49173;43.164;27.786;2022-10-16T05:26:53;101410.50;;;11.07;65.71
63088;BME280;49173;43.164;27.786;2022-10-16T05:29:19;101425.06;;;11.23;65.08
63088;BME280;49173;43.164;27.786;2022-10-16T05:31:45;101426.66;;;11.27;64.99
63088;BME280;49173;43.164;27.786;2022-10-16T05:34:11;101432.66;;;11.34;65.25
63088;BME280;49173;43.164;27.786;2022-10-16T05:36:37;101434.16;;;11.41;65.13
63088;BME280;49173;43.164;27.786;2022-10-16T05:39:02;101430.97;;;11.53;65.05
63088;BME280;49173;43.164;27.786;2022-10-16T05:41:28;101433.66;;;11.53;64.34
63088;BME280;49173;43.164;27.786;2022-10-16T05:43:54;101431.91;;;11.52;64.76
63088;BME280;49173;43.164;27.786;2022-10-16T05:46:20;101439.19;;;11.50;64.19
63088;BME280;49173;43.164;27.786;2022-10-16T05:48:46;101442.53;;;11.55;64.17
63088;BME280;49173;43.164;27.786;2022-10-16T05:51:13;101446.06;;;11.57;64.35
63088;BME280;49173;43.164;27.786;2022-10-16T05:53:40;101444.72;;;11.67;63.47
63088;BME280;49173;43.164;27.786;2022-10-16T05:56:08;101446.88;;;11.79;62.93
63088;BME280;49173;43.164;27.786;2022-10-16T05:58:37;101455.41;;;11.69;62.37
63088;BME280;49173;43.164;27.786;2022-10-16T06:01:20;101457.75;;;11.76;62.68
63088;BME280;49173;43.164;27.786;2022-10-16T06:03:50;101460.78;;;11.91;62.57
63088;BME280;49173;43.164;27.786;2022-10-16T06:06:19;101462.81;;;12.06;62.22
63088;BME280;49173;43.164;27.786;2022-10-16T06:08:46;101463.22;;;12.17;61.46
63088;BME280;49173;43.164;27.786;2022-10-16T06:11:16;101467.09;;;12.10;61.05
63088;BME280;49173;43.164;27.786;2022-10-16T06:13:42;101461.53;;;12.15;61.10
63088;BME280;49173;43.164;27.786;2022-10-16T06:16:10;101467.66;;;12.18;60.57
63088;BME280;49173;43.164;27.786;2022-10-16T06:18:36;101467.78;;;12.15;60.70
63088;BME280;49173;43.164;27.786;2022-10-16T06:21:08;101476.59;;;12.19;60.85
63088;BME280;49173;43.164;27.786;2022-10-16T06:23:34;101466.25;;;12.09;60.61
63088;BME280;49173;43.164;27.786;2022-10-16T06:26:07;101479.22;;;12.00;60.76
63088;BME280;49173;43.164;27.786;2022-10-16T06:28:34;101473.00;;;11.98;61.07
63088;BME280;49173;43.164;27.786;2022-10-16T06:31:00;101472.22;;;11.96;61.56
63088;BME280;49173;43.164;27.786;2022-10-16T06:33:26;101471.41;;;11.94;61.37
63088;BME280;49173;43.164;27.786;2022-10-16T06:35:52;101478.63;;;11.93;61.48
63088;BME280;49173;43.164;27.786;2022-10-16T06:38:17;101480.78;;;12.05;61.55
63088;BME280;49173;43.164;27.786;2022-10-16T06:40:43;101477.19;;;12.05;61.29
63088;BME280;49173;43.164;27.786;2022-10-16T06:43:09;101481.66;;;12.06;61.07
63088;BME280;49173;43.164;27.786;2022-10-16T06:45:35;101484.88;;;12.14;61.07
63088;BME280;49173;43.164;27.786;2022-10-16T06:48:00;101495.50;;;12.17;60.98
63088;BME280;49173;43.164;27.786;2022-10-16T06:50:26;101494.50;;;12.20;61.25
63088;BME280;49173;43.164;27.786;2022-10-16T06:52:52;101496.19;;;12.22;61.10
63088;BME280;49173;43.164;27.786;2022-10-16T06:55:17;101499.75;;;12.23;61.21
63088;BME280;49173;43.164;27.786;2022-10-16T06:57:46;101502.03;;;12.32;61.02
63088;BME280;49173;43.164;27.786;2022-10-16T07:00:12;101490.31;;;12.33;60.80
63088;BME280;49173;43.164;27.786;2022-10-16T07:02:39;101510.63;;;12.40;60.94
63088;BME280;49173;43.164;27.786;2022-10-16T07:05:06;101503.66;;;12.56;60.83
63088;BME280;49173;43.164;27.786;2022-10-16T07:07:31;101505.38;;;12.57;59.94
63088;BME280;49173;43.164;27.786;2022-10-16T07:09:59;101502.50;;;12.62;60.03
63088;BME280;49173;43.164;27.786;2022-10-16T07:12:25;101511.47;;;12.62;60.13
63088;BME280;49173;43.164;27.786;2022-10-16T07:14:51;101508.34;;;12.72;59.99
63088;BME280;49173;43.164;27.786;2022-10-16T07:17:17;101515.34;;;12.76;59.91
63088;BME280;49173;43.164;27.786;2022-10-16T07:19:44;101510.19;;;12.90;59.92
63088;BME280;49173;43.164;27.786;2022-10-16T07:22:10;101508.06;;;12.97;59.04
63088;BME280;49173;43.164;27.786;2022-10-16T07:24:35;101515.22;;;12.98;59.49
63088;BME280;49173;43.164;27.786;2022-10-16T07:27:01;101515.66;;;13.07;59.78
63088;BME280;49173;43.164;27.786;2022-10-16T07:29:27;101505.31;;;13.17;59.10
63088;BME280;49173;43.164;27.786;2022-10-16T07:31:53;101501.97;;;13.31;59.59
63088;BME280;49173;43.164;27.786;2022-10-16T07:34:19;101506.66;;;13.27;59.02
63088;BME280;49173;43.164;27.786;2022-10-16T07:36:49;101504.97;;;13.25;59.70
63088;BME280;49173;43.164;27.786;2022-10-16T07:39:15;101515.34;;;13.34;59.16
63088;BME280;49173;43.164;27.786;2022-10-16T07:41:40;101515.25;;;13.35;59.27
63088;BME280;49173;43.164;27.786;2022-10-16T07:44:06;101518.44;;;13.43;58.70
63088;BME280;49173;43.164;27.786;2022-10-16T07:46:32;101525.00;;;13.57;58.80
63088;BME280;49173;43.164;27.786;2022-10-16T07:48:59;101527.19;;;13.67;58.46
63088;BME280;49173;43.164;27.786;2022-10-16T07:51:25;101524.91;;;13.77;58.27
63088;BME280;49173;43.164;27.786;2022-10-16T07:53:52;101523.94;;;13.78;58.02
63088;BME280;49173;43.164;27.786;2022-10-16T07:56:18;101533.41;;;13.87;58.55
63088;BME280;49173;43.164;27.786;2022-10-16T07:58:44;101524.91;;;13.94;58.25
63088;BME280;49173;43.164;27.786;2022-10-16T08:01:13;101516.59;;;13.99;58.69
63088;BME280;49173;43.164;27.786;2022-10-16T08:03:42;101519.69;;;14.09;57.32
63088;BME280;49173;43.164;27.786;2022-10-16T08:06:08;101518.09;;;14.22;57.85
63088;BME280;49173;43.164;27.786;2022-10-16T08:08:34;101519.38;;;14.32;56.78
63088;BME280;49173;43.164;27.786;2022-10-16T08:11:00;101511.91;;;14.37;56.31
63088;BME280;49173;43.164;27.786;2022-10-16T08:13:29;101515.31;;;14.41;56.59
63088;BME280;49173;43.164;27.786;2022-10-16T08:15:55;101509.75;;;14.44;55.28
63088;BME280;49173;43.164;27.786;2022-10-16T08:18:21;101507.63;;;14.50;55.76
63088;BME280;49173;43.164;27.786;2022-10-16T08:20:47;101505.47;;;14.57;55.39
63088;BME280;49173;43.164;27.786;2022-10-16T08:23:13;101508.19;;;14.57;54.88
63088;BME280;49173;43.164;27.786;2022-10-16T08:25:40;101510.56;;;14.63;54.19
63088;BME280;49173;43.164;27.786;2022-10-16T08:28:08;101514.00;;;14.67;54.57
63088;BME280;49173;43.164;27.786;2022-10-16T08:30:34;101516.50;;;14.70;53.92
63088;BME280;49173;43.164;27.786;2022-10-16T08:33:00;101509.28;;;14.70;54.27
63088;BME280;49173;43.164;27.786;2022-10-16T08:35:27;101509.50;;;14.66;54.10
63088;BME280;49173;43.164;27.786;2022-10-16T08:37:53;101512.84;;;14.71;54.27
63088;BME280;49173;43.164;27.786;2022-10-16T08:40:29;101510.00;;;14.74;53.86
63088;BME280;49173;43.164;27.786;2022-10-16T08:48:46;101517.59;;;14.83;53.49
63088;BME280;49173;43.164;27.786;2022-10-16T08:51:22;101510.34;;;14.83;52.54
63088;BME280;49173;43.164;27.786;2022-10-16T08:53:49;101519.78;;;14.92;53.25
63088;BME280;49173;43.164;27.786;2022-10-16T08:56:17;101503.41;;;14.95;52.74
63088;BME280;49173;43.164;27.786;2022-10-16T08:58:45;101519.75;;;15.09;52.75
63088;BME280;49173;43.164;27.786;2022-10-16T09:01:14;101516.34;;;15.22;52.40
63088;BME280;49173;43.164;27.786;2022-10-16T09:07:22;101506.25;;;15.25;51.86
63088;BME280;49173;43.164;27.786;2022-10-16T09:18:23;101512.19;;;15.32;50.49
63088;BME280;49173;43.164;27.786;2022-10-16T09:21:00;101514.63;;;15.36;50.24
63088;BME280;49173;43.164;27.786;2022-10-16T09:23:29;101510.09;;;15.37;50.34
63088;BME280;49173;43.164;27.786;2022-10-16T09:26:20;101504.31;;;15.43;50.51
63088;BME280;49173;43.164;27.786;2022-10-16T09:28:48;101506.09;;;15.44;49.43
63088;BME280;49173;43.164;27.786;2022-10-16T09:31:22;101506.75;;;15.48;49.13
63088;BME280;49173;43.164;27.786;2022-10-16T09:33:53;101499.97;;;15.41;49.63
63088;BME280;49173;43.164;27.786;2022-10-16T09:36:20;101503.44;;;15.43;49.38
63088;BME280;49173;43.164;27.786;2022-10-16T09:38:46;101506.75;;;15.48;49.86
63088;BME280;49173;43.164;27.786;2022-10-16T09:41:20;101508.25;;;15.53;48.77
63088;BME280;49173;43.164;27.786;2022-10-16T09:43:56;101501.38;;;15.63;48.08
63088;BME280;49173;43.164;27.786;2022-10-16T09:46:36;101495.78;;;15.67;47.72
63088;BME280;49173;43.164;27.786;2022-10-16T09:49:21;101505.31;;;15.74;46.86
63088;BME280;49173;43.164;27.786;2022-10-16T09:51:48;101500.66;;;15.76;47.22
63088;BME280;49173;43.164;27.786;2022-10-16T09:54:19;101509.75;;;15.75;46.81
63088;BME280;49173;43.164;27.786;2022-10-16T09:56:46;101498.16;;;15.73;46.64
63088;BME280;49173;43.164;27.786;2022-10-16T09:59:19;101489.22;;;15.71;47.69
63088;BME280;49173;43.164;27.786;2022-10-16T10:01:47;101495.97;;;15.79;46.80
63088;BME280;49173;43.164;27.786;2022-10-16T10:04:14;101496.81;;;15.80;47.19
63088;BME280;49173;43.164;27.786;2022-10-16T10:06:47;101500.66;;;15.76;46.67
63088;BME280;49173;43.164;27.786;2022-10-16T10:09:20;101503.97;;;15.81;47.04
63088;BME280;49173;43.164;27.786;2022-10-16T10:12:03;101495.16;;;15.93;46.51
63088;BME280;49173;43.164;27.786;2022-10-16T10:14:35;101502.88;;;15.99;46.72
63088;BME280;49173;43.164;27.786;2022-10-16T10:22:44;101491.00;;;16.02;46.29
63088;BME280;49173;43.164;27.786;2022-10-16T10:33:35;101477.41;;;16.17;46.79
63088;BME280;49173;43.164;27.786;2022-10-16T10:36:33;101481.09;;;16.16;47.24
63088;BME280;49173;43.164;27.786;2022-10-16T10:39:04;101492.88;;;16.15;46.87
63088;BME280;49173;43.164;27.786;2022-10-16T10:44:42;101485.91;;;16.11;46.94
63088;BME280;49173;43.164;27.786;2022-10-16T10:50:49;101494.94;;;16.26;46.57
63088;BME280;49173;43.164;27.786;2022-10-16T10:56:07;101472.88;;;16.32;46.61
63088;BME280;49173;43.164;27.786;2022-10-16T10:58:43;101476.09;;;16.39;46.67
63088;BME280;49173;43.164;27.786;2022-10-16T11:01:17;101459.38;;;16.46;45.95
63088;BME280;49173;43.164;27.786;2022-10-16T11:06:35;101463.16;;;16.44;46.51
63088;BME280;49173;43.164;27.786;2022-10-16T11:14:35;101463.25;;;16.57;45.46
63088;BME280;49173;43.164;27.786;2022-10-16T11:17:10;101462.94;;;16.61;45.29
63088;BME280;49173;43.164;27.786;2022-10-16T11:19:50;101485.94;;;16.70;45.76
63088;BME280;49173;43.164;27.786;2022-10-16T11:27:44;101487.00;;;16.82;45.23
63088;BME280;49173;43.164;27.786;2022-10-16T11:33:10;101493.41;;;16.81;43.64
63088;BME280;49173;43.164;27.786;2022-10-16T11:36:05;101475.00;;;16.86;43.75
63088;BME280;49173;43.164;27.786;2022-10-16T11:39:00;101479.84;;;16.95;44.28
63088;BME280;49173;43.164;27.786;2022-10-16T11:44:43;101468.72;;;16.99;44.46
63088;BME280;49173;43.164;27.786;2022-10-16T11:49:41;101472.75;;;17.07;43.52
63088;BME280;49173;43.164;27.786;2022-10-16T11:52:19;101468.69;;;17.14;43.75
63088;BME280;49173;43.164;27.786;2022-10-16T11:54:56;101472.28;;;17.14;43.11
63088;BME280;49173;43.164;27.786;2022-10-16T11:57:28;101472.94;;;17.18;42.50
63088;BME280;49173;43.164;27.786;2022-10-16T12:00:18;101473.63;;;17.21;42.65
63088;BME280;49173;43.164;27.786;2022-10-16T12:03:02;101469.31;;;17.32;43.52
63088;BME280;49173;43.164;27.786;2022-10-16T12:05:55;101476.88;;;17.41;43.04
63088;BME280;49173;43.164;27.786;2022-10-16T12:08:24;101469.50;;;17.43;42.63
63088;BME280;49173;43.164;27.786;2022-10-16T12:10:51;101472.66;;;17.49;42.01
63088;BME280;49173;43.164;27.786;2022-10-16T12:13:39;101486.13;;;17.51;41.68
63088;BME280;49173;43.164;27.786;2022-10-16T12:18:40;101470.22;;;17.59;42.49
63088;BME280;49173;43.164;27.786;2022-10-16T12:21:06;101479.09;;;17.61;41.25
63088;BME280;49173;43.164;27.786;2022-10-16T12:23:37;101476.31;;;17.63;41.74
63088;BME280;49173;43.164;27.786;2022-10-16T12:26:04;101469.78;;;17.65;41.48
63088;BME280;49173;43.164;27.786;2022-10-16T12:28:32;101477.84;;;17.67;40.97
63088;BME280;49173;43.164;27.786;2022-10-16T12:31:02;101484.03;;;17.69;41.57
63088;BME280;49173;43.164;27.786;2022-10-16T12:33:34;101490.53;;;17.66;41.40
63088;BME280;49173;43.164;27.786;2022-10-16T12:36:05;101490.34;;;17.69;41.82
63088;BME280;49173;43.164;27.786;2022-10-16T12:38:45;101487.03;;;17.78;42.12
63088;BME280;49173;43.164;27.786;2022-10-16T12:41:12;101494.91;;;17.83;42.62
63088;BME280;49173;43.164;27.786;2022-10-16T12:43:47;101493.91;;;17.84;41.72
63088;BME280;49173;43.164;27.786;2022-10-16T12:48:41;101517.69;;;17.80;40.71
63088;BME280;49173;43.164;27.786;2022-10-16T12:54:19;101508.31;;;17.72;41.28
63088;BME280;49173;43.164;27.786;2022-10-16T13:21:49;101504.78;;;17.97;41.07
63088;BME280;49173;43.164;27.786;2022-10-16T13:30:30;101505.72;;;18.10;41.98
63088;BME280;49173;43.164;27.786;2022-10-16T13:33:01;101506.75;;;17.95;40.88
63088;BME280;49173;43.164;27.786;2022-10-16T13:35:30;101508.31;;;17.72;40.86
63088;BME280;49173;43.164;27.786;2022-10-16T13:41:11;101504.88;;;17.68;40.67
63088;BME280;49173;43.164;27.786;2022-10-16T13:43:48;101504.97;;;17.67;40.80
63088;BME280;49173;43.164;27.786;2022-10-16T13:48:43;101516.00;;;17.92;41.59
63088;BME280;49173;43.164;27.786;2022-10-16T13:51:15;101515.00;;;17.93;40.95
63088;BME280;49173;43.164;27.786;2022-10-16T13:53:41;101518.44;;;17.82;40.88
63088;BME280;49173;43.164;27.786;2022-10-16T13:56:11;101521.47;;;17.78;41.25
63088;BME280;49173;43.164;27.786;2022-10-16T13:58:38;101521.25;;;17.81;41.51
63088;BME280;49173;43.164;27.786;2022-10-16T14:01:12;101516.06;;;17.78;41.27
63088;BME280;49173;43.164;27.786;2022-10-16T14:03:39;101515.38;;;17.74;41.00
63088;BME280;49173;43.164;27.786;2022-10-16T14:06:12;101524.50;;;17.73;41.06
63088;BME280;49173;43.164;27.786;2022-10-16T14:08:43;101517.13;;;17.61;41.65
63088;BME280;49173;43.164;27.786;2022-10-16T14:11:10;101525.88;;;17.52;42.06
63088;BME280;49173;43.164;27.786;2022-10-16T14:13:39;101523.16;;;17.52;42.17
63088;BME280;49173;43.164;27.786;2022-10-16T14:16:22;101523.53;;;17.60;42.33
63088;BME280;49173;43.164;27.786;2022-10-16T14:18:57;101528.59;;;17.52;41.63
63088;BME280;49173;43.164;27.786;2022-10-16T14:21:24;101526.28;;;17.46;42.22
63088;BME280;49173;43.164;27.786;2022-10-16T14:23:52;101531.31;;;17.52;42.69
63088;BME280;49173;43.164;27.786;2022-10-16T14:26:21;101528.69;;;17.50;42.47
63088;BME280;49173;43.164;27.786;2022-10-16T14:28:48;101534.41;;;17.46;42.66
63088;BME280;49173;43.164;27.786;2022-10-16T14:31:26;101537.84;;;17.35;43.00
63088;BME280;49173;43.164;27.786;2022-10-16T14:33:53;101539.56;;;17.36;42.94
63088;BME280;49173;43.164;27.786;2022-10-16T14:36:18;101537.91;;;17.34;42.70
63088;BME280;49173;43.164;27.786;2022-10-16T14:41:22;101539.50;;;17.23;42.72
63088;BME280;49173;43.164;27.786;2022-10-16T14:43:52;101548.13;;;17.16;42.31
63088;BME280;49173;43.164;27.786;2022-10-16T14:49:18;101542.41;;;17.06;42.74
63088;BME280;49173;43.164;27.786;2022-10-16T14:51:47;101536.78;;;17.09;42.50